Beltdiep — PBYF — position and weather

sailwx.info

Track history (hours):
 
Tides and Currents Weather Stations Pressure Air Temp Water Temp Dewpoint Dewpoint Depression Visibility Wind Speed Wind Dir Waves Ship Positions

Beltdiep

Last reported at 2014-Sep-18 06:29 UTC. Time now 2014-Sep-19 07:48 UTC.
Position N 38°11' W 009°40'.

Length 107 m; draft 3.9 m.

Type: Ship. MMSI: 246671000.

Date/timePositionNaut miles runAvg speedWind from/ knotsBaromVisibWave heightAir tempDewpointWater temp
2014-Sep-18 06:29N 38°11' W 009°40'9 9.1
2014-Sep-18 05:31N 38°03' W 009°38'9 9.2
2014-Sep-18 04:33N 37°54' W 009°35'9 9.2
2014-Sep-18 03:33N 37°45' W 009°32'9 9.0
2014-Sep-18 02:33N 37°36' W 009°30'63 7.9
2014-Sep-17 18:33N 36°41' W 008°50'9 8.7
2014-Sep-17 17:33N 36°39' W 008°39'162 8.1
2014-Sep-16 21:24N 36°01' W 005°23'21010.0
2014-Sep-16 00:32N 36°28' W 001°06'3410.3
2014-Sep-15 21:15N 36°30' W 000°23'710.0
2014-Sep-15 20:33N 36°30' W 000°15'1010.1
2014-Sep-15 19:33N 36°31' W 000°02'1010.2
2014-Sep-15 18:33N 36°31' E 000°11'1010.2
2014-Sep-15 17:33N 36°32' E 000°23'1010.5
2014-Sep-15 16:33N 36°32' E 000°36'1110.5
2014-Sep-15 15:32N 36°32' E 000°49'24 1.8
2014-Sep-15 02:28N 36°31' E 001°19'0 0.0
2014-Sep-14 16:26N 36°31' E 001°19'0 0.0
2014-Sep-14 15:31N 36°31' E 001°19'0 0.0
2014-Sep-14 14:31N 36°31' E 001°19'0 0.0
2014-Sep-14 10:05N 36°31' E 001°19'0 0.0
2014-Sep-14 09:19N 36°31' E 001°19'0 0.0
2014-Sep-14 07:25N 36°31' E 001°19'0 0.0
2014-Sep-14 06:31N 36°31' E 001°19'0 0.0
2014-Sep-14 05:18N 36°31' E 001°19'0 0.0
2014-Sep-13 12:25N 36°31' E 001°19'0 0.0
2014-Sep-13 11:25N 36°31' E 001°19'0 0.0
2014-Sep-13 05:29N 36°32' E 001°19'0 0.0
2014-Sep-13 04:28N 36°32' E 001°19'0 0.0
2014-Sep-13 03:27N 36°32' E 001°19'0 0.0
2014-Sep-13 02:27N 36°32' E 001°19'0 0.0
2014-Sep-13 01:27N 36°32' E 001°19'0 0.0
2014-Sep-13 00:14N 36°32' E 001°19'0 0.0
2014-Sep-12 19:25N 36°32' E 001°19'0 0.0
2014-Sep-12 18:30N 36°32' E 001°19'0 0.0
2014-Sep-12 17:29N 36°32' E 001°19'0 0.0
2014-Sep-12 15:28N 36°32' E 001°19'0 0.0
2014-Sep-12 14:25N 36°32' E 001°19'0 0.0
2014-Sep-12 13:30N 36°32' E 001°19'0 0.0
2014-Sep-12 12:33N 36°32' E 001°19'0 0.0
2014-Sep-11 23:10N 36°32' E 001°19'0 0.0
2014-Sep-11 18:33N 36°32' E 001°19'0 0.0
2014-Sep-11 17:22N 36°32' E 001°19'0 0.0
2014-Sep-11 16:07N 36°32' E 001°19'0 0.0
2014-Sep-11 15:30N 36°32' E 001°19'0 0.0
2014-Sep-11 13:31N 36°32' E 001°19'0 0.0
2014-Sep-11 12:33N 36°32' E 001°19'1 0.1
2014-Sep-11 07:08N 36°31' E 001°18'0 0.5
2014-Sep-11 06:22N 36°31' E 001°18'0 0.2
2014-Sep-11 05:33N 36°31' E 001°18'0 0.1
2014-Sep-11 04:33N 36°31' E 001°18'0 0.0
2014-Sep-10 23:27N 36°31' E 001°18'0 0.0
2014-Sep-10 22:23N 36°31' E 001°18'0 0.0
2014-Sep-10 21:33N 36°31' E 001°18'0 0.1
2014-Sep-10 20:31N 36°31' E 001°18'0 0.0
2014-Sep-10 19:33N 36°31' E 001°18'0 0.0
2014-Sep-10 14:32N 36°31' E 001°18'0 0.0
2014-Sep-10 13:33N 36°31' E 001°18'76 6.3
2014-Sep-10 01:32N 36°55' E 002°47'8 8.0
2014-Sep-10 00:33N 36°57' E 002°57'8 8.0
2014-Sep-09 23:33N 36°59' E 003°06'9 8.3
2014-Sep-09 22:32N 37°01' E 003°17'11 9.3
2014-Sep-09 21:20N 37°04' E 003°30'18 9.9
2014-Sep-09 19:32N 37°07' E 003°52'22 9.8
2014-Sep-09 17:15N 37°08' E 004°20'29 9.4
2014-Sep-09 14:07N 37°10' E 004°57'6 9.2
2014-Sep-09 13:30N 37°10' E 005°04'9 9.2
2014-Sep-09 12:33N 37°11' E 005°15'4110.1
2014-Sep-09 08:31N 37°13' E 006°06'29 9.9
2014-Sep-09 05:33N 37°14' E 006°43'42 9.8
2014-Sep-09 01:12N 37°14' E 007°36'148 9.2
2014-Sep-08 09:12N 37°32' E 010°41'3 5.2
2014-Sep-08 08:34N 37°31' E 010°45'1010.0
2014-Sep-08 07:33N 37°29' E 010°58'  
Track history (hours):
 
Tides and Currents Weather Stations Pressure Air Temp Water Temp Dewpoint Dewpoint Depression Visibility Wind Speed Wind Dir Waves Ship Positions

Beltdiep

Last reported at 2014-Sep-18 06:29 UTC. Time now 2014-Sep-19 07:48 UTC.
Position N 38°11' W 009°40'.

Length 107 m; draft 3.9 m.

Type: Ship. MMSI: 246671000.

Date/timePositionNaut miles runAvg speedWind from/ knotsBaromVisibWave heightAir tempDewpointWater temp
2014-Sep-18 06:29N 38°11' W 009°40'9 9.1
2014-Sep-18 05:31N 38°03' W 009°38'9 9.2
2014-Sep-18 04:33N 37°54' W 009°35'9 9.2
2014-Sep-18 03:33N 37°45' W 009°32'9 9.0
2014-Sep-18 02:33N 37°36' W 009°30'63 7.9
2014-Sep-17 18:33N 36°41' W 008°50'9 8.7
2014-Sep-17 17:33N 36°39' W 008°39'162 8.1
2014-Sep-16 21:24N 36°01' W 005°23'21010.0
2014-Sep-16 00:32N 36°28' W 001°06'3410.3
2014-Sep-15 21:15N 36°30' W 000°23'710.0
2014-Sep-15 20:33N 36°30' W 000°15'1010.1
2014-Sep-15 19:33N 36°31' W 000°02'1010.2
2014-Sep-15 18:33N 36°31' E 000°11'1010.2
2014-Sep-15 17:33N 36°32' E 000°23'1010.5
2014-Sep-15 16:33N 36°32' E 000°36'1110.5
2014-Sep-15 15:32N 36°32' E 000°49'24 1.8
2014-Sep-15 02:28N 36°31' E 001°19'0 0.0
2014-Sep-14 16:26N 36°31' E 001°19'0 0.0
2014-Sep-14 15:31N 36°31' E 001°19'0 0.0
2014-Sep-14 14:31N 36°31' E 001°19'0 0.0
2014-Sep-14 10:05N 36°31' E 001°19'0 0.0
2014-Sep-14 09:19N 36°31' E 001°19'0 0.0
2014-Sep-14 07:25N 36°31' E 001°19'0 0.0
2014-Sep-14 06:31N 36°31' E 001°19'0 0.0
2014-Sep-14 05:18N 36°31' E 001°19'0 0.0
2014-Sep-13 12:25N 36°31' E 001°19'0 0.0
2014-Sep-13 11:25N 36°31' E 001°19'0 0.0
2014-Sep-13 05:29N 36°32' E 001°19'0 0.0
2014-Sep-13 04:28N 36°32' E 001°19'0 0.0
2014-Sep-13 03:27N 36°32' E 001°19'0 0.0
2014-Sep-13 02:27N 36°32' E 001°19'0 0.0
2014-Sep-13 01:27N 36°32' E 001°19'0 0.0
2014-Sep-13 00:14N 36°32' E 001°19'0 0.0
2014-Sep-12 19:25N 36°32' E 001°19'0 0.0
2014-Sep-12 18:30N 36°32' E 001°19'0 0.0
2014-Sep-12 17:29N 36°32' E 001°19'0 0.0
2014-Sep-12 15:28N 36°32' E 001°19'0 0.0
2014-Sep-12 14:25N 36°32' E 001°19'0 0.0
2014-Sep-12 13:30N 36°32' E 001°19'0 0.0
2014-Sep-12 12:33N 36°32' E 001°19'0 0.0
2014-Sep-11 23:10N 36°32' E 001°19'0 0.0
2014-Sep-11 18:33N 36°32' E 001°19'0 0.0
2014-Sep-11 17:22N 36°32' E 001°19'0 0.0
2014-Sep-11 16:07N 36°32' E 001°19'0 0.0
2014-Sep-11 15:30N 36°32' E 001°19'0 0.0
2014-Sep-11 13:31N 36°32' E 001°19'0 0.0
2014-Sep-11 12:33N 36°32' E 001°19'1 0.1
2014-Sep-11 07:08N 36°31' E 001°18'0 0.5
2014-Sep-11 06:22N 36°31' E 001°18'0 0.2
2014-Sep-11 05:33N 36°31' E 001°18'0 0.1
2014-Sep-11 04:33N 36°31' E 001°18'0 0.0
2014-Sep-10 23:27N 36°31' E 001°18'0 0.0
2014-Sep-10 22:23N 36°31' E 001°18'0 0.0
2014-Sep-10 21:33N 36°31' E 001°18'0 0.1
2014-Sep-10 20:31N 36°31' E 001°18'0 0.0
2014-Sep-10 19:33N 36°31' E 001°18'0 0.0
2014-Sep-10 14:32N 36°31' E 001°18'0 0.0
2014-Sep-10 13:33N 36°31' E 001°18'76 6.3
2014-Sep-10 01:32N 36°55' E 002°47'8 8.0
2014-Sep-10 00:33N 36°57' E 002°57'8 8.0
2014-Sep-09 23:33N 36°59' E 003°06'9 8.3
2014-Sep-09 22:32N 37°01' E 003°17'11 9.3
2014-Sep-09 21:20N 37°04' E 003°30'18 9.9
2014-Sep-09 19:32N 37°07' E 003°52'22 9.8
2014-Sep-09 17:15N 37°08' E 004°20'29 9.4
2014-Sep-09 14:07N 37°10' E 004°57'6 9.2
2014-Sep-09 13:30N 37°10' E 005°04'9 9.2
2014-Sep-09 12:33N 37°11' E 005°15'4110.1
2014-Sep-09 08:31N 37°13' E 006°06'29 9.9
2014-Sep-09 05:33N 37°14' E 006°43'42 9.8
2014-Sep-09 01:12N 37°14' E 007°36'148 9.2
2014-Sep-08 09:12N 37°32' E 010°41'3 5.2
2014-Sep-08 08:34N 37°31' E 010°45'1010.0
2014-Sep-08 07:33N 37°29' E 010°58'  

Dump ship's entire track history